Main page
METAR-TAF:

METAR-TAF

Airports :

São Pedro da Aldeia, Rio de Janeiro, Brazil

latitude: 22-49S, longitude: 042-06W, elevation: 10 m

Current weather observation

The report was made 1 hour and 21 minutes ago, at 09:00 UTC
Wind 13 kt from the Northeast with gusts up to 25 kt
Temperature 23°C
Humidity 89%
Pressure 1013 hPa
Visibility: 8000 m
Scattered clouds at a height of 400 ft
Scattered clouds at a height of 1300 ft
Broken clouds at a height of 3000 ft

METAR: SBES 140900Z 05013G25KT 8000 SCT004 SCT013 BKN030 23/21 Q1013

Time: 08:21 (10:21 UTC)


TAF: missing

Weather observations and forecasts of more than 4000 airports (METAR and TAF reports).

The available stations are represented by yellow and red dots on the map.

Hover mouse over dot to see the name of the station.

Then click to see weather observations and forecasts.

To change the map : click on the green buttons with a black cross to zoom in, on the green button with a dash to zoom out, or on the green arrows for adjacent maps.


METAR-TAF: